createdAt,value
2019-01-15T00:00:50.998Z,24.00
2019-01-15T00:03:19.354Z,30.00
2019-01-15T00:05:47.562Z,20.27
2019-01-15T00:08:16.107Z,23.33
2019-01-15T00:10:44.691Z,19.87
2019-01-15T00:13:12.870Z,30.03
2019-01-15T00:15:41.311Z,23.47
2019-01-15T00:18:09.453Z,22.53
2019-01-15T00:20:38.031Z,19.20
2019-01-15T00:23:06.281Z,18.80
2019-01-15T00:25:37.598Z,23.57
2019-01-15T00:28:05.659Z,28.37
2019-01-15T00:30:33.824Z,18.43
2019-01-15T00:33:02.123Z,22.30
2019-01-15T00:35:31.453Z,20.50
2019-01-15T00:37:59.613Z,27.13
2019-01-15T00:40:27.731Z,22.37
2019-01-15T00:42:55.801Z,26.70
2019-01-15T00:45:23.911Z,21.50
2019-01-15T00:47:52.038Z,23.87
2019-01-15T00:50:20.179Z,23.10
2019-01-15T00:52:48.257Z,28.07
2019-01-15T00:55:16.456Z,19.83
2019-01-15T00:57:44.610Z,22.93
2019-01-15T01:00:19.746Z,25.87
2019-01-15T01:02:48.441Z,26.00
2019-01-15T01:05:17.463Z,18.53
2019-01-15T01:07:45.829Z,22.40
2019-01-15T01:10:16.834Z,21.67
2019-01-15T01:12:45.269Z,17.33
2019-01-15T01:15:17.868Z,22.40
2019-01-15T01:17:46.274Z,25.73
2019-01-15T01:20:21.452Z,27.27
2019-01-15T01:22:50.906Z,25.93
2019-01-15T01:25:19.126Z,28.93
2019-01-15T01:27:47.387Z,18.97
2019-01-15T01:30:20.234Z,22.83
2019-01-15T01:32:48.672Z,23.47
2019-01-15T01:35:16.890Z,16.03
2019-01-15T01:37:45.476Z,24.50
2019-01-15T01:40:17.094Z,24.67
2019-01-15T01:42:45.661Z,23.17
2019-01-15T01:45:16.732Z,20.53
2019-01-15T01:47:45.502Z,23.10
2019-01-15T01:50:14.839Z,21.47
2019-01-15T01:52:44.447Z,21.37
2019-01-15T01:55:14.888Z,22.43
2019-01-15T01:57:46.185Z,24.93
2019-01-15T02:00:20.133Z,22.37
2019-01-15T02:02:48.369Z,27.70
2019-01-15T02:05:16.873Z,23.30
2019-01-15T02:07:45.689Z,19.77
2019-01-15T02:10:19.209Z,20.50
2019-01-15T02:12:48.835Z,21.73
2019-01-15T02:15:23.143Z,17.73
2019-01-15T02:17:51.364Z,23.33
2019-01-15T02:20:20.268Z,23.17
2019-01-15T02:22:48.476Z,20.80
2019-01-15T02:25:16.576Z,19.00
2019-01-15T02:27:47.090Z,25.27
2019-01-15T02:30:18.527Z,17.20
2019-01-15T02:32:46.714Z,26.83
2019-01-15T02:35:15.358Z,31.60
2019-01-15T02:37:43.664Z,12.17
2019-01-15T02:40:12.497Z,22.50
2019-01-15T02:42:46.462Z,18.57
2019-01-15T02:45:13.426Z,14.67
2019-01-15T02:47:41.725Z,18.23
2019-01-15T02:50:13.551Z,14.80
2019-01-15T02:52:41.929Z,22.70
2019-01-15T02:55:10.853Z,26.00
2019-01-15T02:57:39.329Z,18.37
2019-01-15T03:00:26.352Z,19.57
2019-01-15T03:02:54.646Z,17.77
2019-01-15T03:05:24.502Z,19.67
2019-01-15T03:07:53.594Z,22.27
2019-01-15T03:10:22.843Z,20.73
2019-01-15T03:12:56.985Z,19.30
2019-01-15T03:15:24.156Z,17.13
2019-01-15T03:17:52.988Z,17.47
2019-01-15T03:20:21.130Z,16.43
2019-01-15T03:22:49.299Z,21.27
2019-01-15T03:25:17.635Z,14.07
2019-01-15T03:27:45.769Z,17.20
2019-01-15T03:30:18.778Z,21.67
2019-01-15T03:32:46.897Z,15.50
2019-01-15T03:35:15.430Z,12.43
2019-01-15T03:37:43.632Z,22.10
2019-01-15T03:40:19.357Z,14.57
2019-01-15T03:42:47.702Z,18.33
2019-01-15T03:45:16.203Z,14.30
2019-01-15T03:47:44.346Z,22.67
2019-01-15T03:50:12.942Z,21.33
2019-01-15T03:52:41.202Z,19.73
2019-01-15T03:55:09.945Z,16.10
2019-01-15T03:57:38.273Z,18.73
2019-01-15T04:00:12.399Z,20.63
2019-01-15T04:02:40.832Z,13.27
2019-01-15T04:05:09.197Z,13.30
2019-01-15T04:07:37.997Z,15.30
2019-01-15T04:10:08.713Z,15.43
2019-01-15T04:12:37.408Z,21.60
2019-01-15T04:15:08.664Z,19.67
2019-01-15T04:17:37.050Z,12.40
2019-01-15T04:20:09.621Z,15.63
2019-01-15T04:22:37.853Z,16.97
2019-01-15T04:25:08.583Z,13.67
2019-01-15T04:27:37.134Z,17.07
2019-01-15T04:30:09.691Z,16.00
2019-01-15T04:32:38.074Z,15.97
2019-01-15T04:35:07.397Z,15.90
2019-01-15T04:37:35.608Z,16.07
2019-01-15T04:40:09.042Z,20.47
2019-01-15T04:42:37.245Z,19.83
2019-01-15T04:45:07.740Z,19.70
2019-01-15T04:47:35.908Z,12.17
2019-01-15T04:50:05.927Z,16.57
2019-01-15T04:52:34.731Z,13.80
2019-01-15T04:55:05.348Z,13.33
2019-01-15T04:57:34.849Z,16.97
2019-01-15T05:00:05.029Z,12.97
2019-01-15T05:02:34.235Z,8.70
2019-01-15T05:05:03.182Z,14.50
2019-01-15T05:07:31.273Z,13.63
2019-01-15T05:09:59.814Z,19.80
2019-01-15T05:12:27.960Z,12.40
2019-01-15T05:14:56.250Z,17.70
2019-01-15T05:17:24.370Z,13.40
2019-01-15T05:19:52.550Z,16.83
2019-01-15T05:22:20.641Z,10.37
2019-01-15T05:24:48.812Z,16.77
2019-01-15T05:27:17.091Z,17.30
2019-01-15T05:29:45.369Z,13.70
2019-01-15T05:32:13.650Z,12.70
2019-01-15T05:34:41.967Z,15.13
2019-01-15T05:37:10.283Z,11.27
2019-01-15T05:39:38.502Z,13.30
2019-01-15T05:42:06.578Z,14.10
2019-01-15T05:44:34.712Z,13.80
2019-01-15T05:47:03.020Z,16.77
2019-01-15T05:49:31.129Z,11.20
2019-01-15T05:51:59.243Z,16.50
2019-01-15T05:54:27.364Z,9.73
2019-01-15T05:56:55.490Z,15.50
2019-01-15T05:59:23.769Z,15.00
2019-01-15T06:01:51.899Z,10.07
2019-01-15T06:04:20.174Z,12.07
2019-01-15T06:06:48.486Z,15.33
2019-01-15T06:09:16.624Z,8.90
2019-01-15T06:11:45.006Z,13.10
2019-01-15T06:14:13.354Z,20.07
2019-01-15T06:16:41.754Z,12.57
2019-01-15T06:19:10.366Z,18.77
2019-01-15T06:21:38.540Z,15.93
2019-01-15T06:24:07.004Z,8.97
2019-01-15T06:26:35.330Z,14.00
2019-01-15T06:29:03.917Z,11.57
2019-01-15T06:31:32.044Z,16.80
2019-01-15T06:34:00.172Z,17.90
2019-01-15T06:36:28.387Z,17.77
2019-01-15T06:38:56.447Z,11.77
2019-01-15T06:41:24.682Z,10.80
2019-01-15T06:43:52.850Z,20.77
2019-01-15T06:46:20.989Z,11.17
2019-01-15T06:48:49.269Z,15.80
2019-01-15T06:51:18.815Z,13.63
2019-01-15T06:53:47.083Z,9.37
2019-01-15T06:56:15.243Z,16.27
2019-01-15T06:58:43.400Z,17.37
2019-01-15T07:01:11.505Z,14.90
2019-01-15T07:03:41.020Z,10.53
2019-01-15T07:06:09.277Z,14.50
2019-01-15T07:08:37.478Z,18.70
2019-01-15T07:11:05.531Z,18.83
2019-01-15T07:13:33.860Z,14.37
2019-01-15T07:16:02.573Z,11.63
2019-01-15T07:18:30.737Z,20.00
2019-01-15T07:20:59.113Z,15.17
2019-01-15T07:23:27.380Z,9.57
2019-01-15T07:25:55.699Z,22.33
2019-01-15T07:28:23.884Z,13.77
2019-01-15T07:30:56.037Z,11.00
2019-01-15T07:33:27.431Z,16.30
2019-01-15T07:35:55.663Z,16.27
2019-01-15T07:38:23.920Z,18.83
2019-01-15T07:40:52.380Z,11.57
2019-01-15T07:43:20.659Z,13.33
2019-01-15T07:45:49.278Z,19.90
2019-01-15T07:48:17.707Z,19.27
2019-01-15T07:50:46.294Z,11.00
2019-01-15T07:53:14.615Z,17.87
2019-01-15T07:55:43.013Z,18.33
2019-01-15T07:58:11.270Z,14.10
2019-01-15T08:00:39.649Z,16.47
2019-01-15T08:03:08.324Z,23.50
2019-01-15T08:05:36.546Z,22.63
2019-01-15T08:08:05.932Z,17.17
2019-01-15T08:10:34.347Z,25.53
2019-01-15T08:13:03.093Z,18.07
2019-01-15T08:15:31.529Z,18.80
2019-01-15T08:17:59.616Z,24.97
2019-01-15T08:20:27.901Z,16.73
2019-01-15T08:22:56.162Z,21.93
2019-01-15T08:25:24.457Z,19.80
2019-01-15T08:27:53.720Z,20.53
2019-01-15T08:30:27.689Z,16.93
2019-01-15T08:32:56.061Z,17.80
2019-01-15T08:35:24.571Z,22.73
2019-01-15T08:37:53.379Z,20.50
2019-01-15T08:40:21.635Z,22.23
2019-01-15T08:42:49.964Z,24.57
2019-01-15T08:45:18.755Z,16.70
2019-01-15T08:47:50.655Z,15.63
2019-01-15T08:50:25.923Z,17.07
2019-01-15T08:52:54.279Z,24.07
2019-01-15T08:55:22.646Z,19.33
2019-01-15T08:57:51.261Z,22.40
2019-01-15T09:00:19.670Z,23.77
2019-01-15T09:02:47.946Z,17.37
2019-01-15T09:05:16.126Z,21.73
2019-01-15T09:07:44.509Z,20.47
2019-01-15T09:10:14.316Z,22.20
2019-01-15T09:12:43.015Z,19.43
2019-01-15T09:15:13.324Z,21.87
2019-01-15T09:17:41.485Z,27.03
2019-01-15T09:20:13.868Z,21.53
2019-01-15T09:22:42.325Z,21.97
2019-01-15T09:25:10.533Z,26.50
2019-01-15T09:27:38.957Z,18.37
2019-01-15T09:30:11.938Z,20.83
2019-01-15T09:32:40.319Z,24.40
2019-01-15T09:35:08.563Z,21.13
2019-01-15T09:37:37.297Z,22.20
2019-01-15T09:40:08.509Z,22.70
2019-01-15T09:42:36.701Z,26.93
2019-01-15T09:45:07.680Z,21.70
2019-01-15T09:47:37.890Z,21.33
2019-01-15T09:50:07.520Z,30.17
2019-01-15T09:52:36.209Z,27.43
2019-01-15T09:55:05.177Z,26.83
2019-01-15T09:57:35.298Z,25.20
2019-01-15T10:00:06.160Z,26.67
2019-01-15T10:02:35.398Z,27.07
2019-01-15T10:05:04.665Z,25.17
2019-01-15T10:07:33.973Z,26.77
2019-01-15T10:10:02.708Z,23.83
2019-01-15T10:12:30.919Z,27.43
2019-01-15T10:14:59.333Z,24.90
2019-01-15T10:17:27.411Z,24.37
2019-01-15T10:19:55.515Z,25.13
2019-01-15T10:22:23.810Z,27.33
2019-01-15T10:24:52.303Z,23.57
2019-01-15T10:27:20.963Z,26.80
2019-01-15T10:29:50.468Z,29.60
2019-01-15T10:32:48.517Z,33.73
2019-01-15T10:35:51.672Z,34.20
2019-01-15T10:38:21.548Z,31.47
2019-01-15T10:40:50.411Z,30.10
2019-01-15T10:43:18.801Z,31.57
2019-01-15T10:45:46.952Z,36.90
2019-01-15T10:48:15.284Z,36.87
2019-01-15T10:50:43.516Z,36.00
2019-01-15T10:53:11.827Z,31.33
2019-01-15T10:55:40.163Z,32.90
2019-01-15T10:58:08.957Z,27.90
2019-01-15T11:00:37.212Z,30.73
2019-01-15T11:03:05.619Z,27.43
2019-01-15T11:05:34.140Z,30.30
2019-01-15T11:08:02.346Z,27.80
2019-01-15T11:10:30.466Z,27.93
2019-01-15T11:12:58.781Z,25.57
2019-01-15T11:15:27.107Z,26.00
2019-01-15T11:17:55.549Z,30.60
2019-01-15T11:20:23.661Z,24.30
2019-01-15T11:22:51.874Z,22.17
2019-01-15T11:25:20.163Z,22.50
2019-01-15T11:27:48.391Z,25.67
2019-01-15T11:30:16.701Z,26.70
2019-01-15T11:32:44.922Z,24.07
2019-01-15T11:35:13.121Z,24.97
2019-01-15T11:37:41.586Z,23.43
2019-01-15T11:40:10.020Z,21.73
2019-01-15T11:42:38.210Z,24.53
2019-01-15T11:45:09.122Z,21.07
2019-01-15T11:47:37.454Z,22.13
2019-01-15T11:50:07.977Z,20.43
2019-01-15T11:52:36.160Z,17.07
2019-01-15T11:55:05.799Z,17.10
2019-01-15T11:57:34.145Z,19.77
2019-01-15T12:00:03.197Z,20.50
2019-01-15T12:02:40.813Z,20.07
2019-01-15T12:05:34.890Z,19.33
2019-01-15T12:08:15.239Z,17.00
2019-01-15T12:11:08.613Z,17.13
2019-01-15T12:13:56.396Z,18.23
2019-01-15T12:16:42.836Z,20.03
2019-01-15T12:19:36.747Z,13.70
2019-01-15T12:22:24.480Z,15.87
2019-01-15T12:25:04.450Z,17.93
2019-01-15T12:27:51.093Z,15.43
2019-01-15T12:30:39.180Z,12.93
2019-01-15T12:33:25.284Z,16.67
2019-01-15T12:36:31.796Z,17.40
2019-01-15T12:39:31.553Z,15.47
2019-01-15T12:42:25.695Z,14.37
2019-01-15T12:45:18.071Z,13.53
2019-01-15T12:47:52.203Z,14.57
2019-01-15T12:50:38.481Z,14.90
2019-01-15T12:53:25.561Z,19.20
2019-01-15T12:56:05.607Z,18.53
2019-01-15T12:58:46.447Z,21.30
2019-01-15T13:01:36.997Z,14.90
2019-01-15T13:04:15.487Z,17.27
2019-01-15T13:07:05.987Z,16.53
2019-01-15T13:09:50.104Z,19.17
2019-01-15T13:12:35.713Z,20.93
2019-01-15T13:15:37.025Z,21.90
2019-01-15T13:18:24.689Z,20.03
2019-01-15T13:21:12.519Z,14.97
2019-01-15T13:23:58.817Z,13.83
2019-01-15T13:26:50.154Z,13.93
2019-01-15T13:29:53.024Z,13.20
2019-01-15T13:32:39.752Z,13.67
2019-01-15T13:35:42.155Z,16.60
2019-01-15T13:38:48.584Z,15.20
2019-01-15T13:41:39.538Z,13.67
2019-01-15T13:44:36.621Z,15.00
2019-01-15T13:47:30.052Z,13.47
2019-01-15T13:50:32.690Z,16.40
2019-01-15T13:53:39.026Z,13.57
2019-01-15T13:56:35.015Z,11.77
2019-01-15T13:59:40.684Z,13.10
2019-01-15T14:02:31.412Z,14.20
2019-01-15T14:05:20.624Z,10.83
2019-01-15T14:08:01.946Z,10.20
2019-01-15T14:10:53.105Z,10.80
2019-01-15T14:13:43.925Z,14.63
2019-01-15T14:16:30.381Z,17.17
2019-01-15T14:19:33.028Z,12.47
2019-01-15T14:22:19.627Z,12.67
2019-01-15T14:25:07.099Z,9.23
2019-01-15T14:27:54.341Z,10.30
2019-01-15T14:30:40.755Z,10.40
2019-01-15T14:33:27.208Z,11.80
2019-01-15T14:36:20.814Z,10.97
2019-01-15T14:39:06.990Z,10.60
2019-01-15T14:41:54.760Z,11.80
2019-01-15T14:44:41.186Z,10.57
2019-01-15T14:47:37.674Z,10.40
2019-01-15T14:50:28.478Z,12.07
2019-01-15T14:53:34.675Z,12.83
2019-01-15T14:56:31.283Z,12.97
2019-01-15T14:59:24.808Z,13.03
2019-01-15T15:02:13.034Z,10.77
2019-01-15T15:05:00.737Z,15.83
2019-01-15T15:07:54.206Z,11.30
2019-01-15T15:10:40.762Z,9.20
2019-01-15T15:13:28.604Z,13.23
2019-01-15T15:16:16.601Z,11.83
2019-01-15T15:19:07.821Z,13.20
2019-01-15T15:21:56.115Z,10.60
2019-01-15T15:24:38.117Z,9.73
2019-01-15T15:27:21.112Z,11.60
2019-01-15T15:30:07.335Z,8.97
2019-01-15T15:33:10.220Z,11.10
2019-01-15T15:35:58.300Z,11.63
2019-01-15T15:38:44.993Z,11.83
2019-01-15T15:41:38.923Z,8.47
2019-01-15T15:44:24.002Z,8.17
2019-01-15T15:47:05.910Z,10.23
2019-01-15T15:49:52.381Z,11.13
2019-01-15T15:52:58.451Z,8.97
2019-01-15T15:56:01.478Z,8.17
2019-01-15T15:58:47.933Z,11.63
2019-01-15T16:01:35.822Z,9.07
2019-01-15T16:04:22.989Z,7.93
2019-01-15T16:07:09.462Z,9.13
2019-01-15T16:09:55.671Z,6.90
2019-01-15T16:12:38.807Z,8.07
2019-01-15T16:15:31.341Z,9.73
2019-01-15T16:18:13.478Z,12.27
2019-01-15T16:21:04.737Z,9.13
2019-01-15T16:23:46.922Z,10.70
2019-01-15T16:26:24.907Z,8.23
2019-01-15T16:29:21.886Z,11.70
2019-01-15T16:32:07.269Z,12.73
2019-01-15T16:34:49.711Z,10.97
2019-01-15T16:37:46.464Z,10.07
2019-01-15T16:40:46.504Z,10.27
2019-01-15T16:43:40.387Z,12.60
2019-01-15T16:46:26.213Z,12.63
2019-01-15T16:49:09.759Z,13.27
2019-01-15T16:52:03.731Z,16.47
2019-01-15T16:54:43.620Z,14.50
2019-01-15T16:57:37.128Z,18.03
2019-01-15T17:00:30.737Z,19.60
2019-01-15T17:03:16.943Z,23.67
2019-01-15T17:06:16.563Z,24.17
2019-01-15T17:09:16.425Z,21.63
2019-01-15T17:12:06.783Z,26.50
2019-01-15T17:15:00.186Z,27.37
2019-01-15T17:17:46.326Z,32.07
2019-01-15T17:20:40.161Z,28.20
2019-01-15T17:23:27.816Z,31.13
2019-01-15T17:26:21.496Z,27.97
2019-01-15T17:29:06.039Z,29.27
2019-01-15T17:32:07.141Z,26.60
2019-01-15T17:34:54.667Z,30.50
2019-01-15T17:37:48.324Z,23.60
2019-01-15T17:40:38.898Z,25.10
2019-01-15T17:43:33.668Z,23.50
2019-01-15T17:46:40.885Z,31.93
2019-01-15T17:49:24.949Z,25.97
2019-01-15T17:52:12.689Z,27.40
2019-01-15T17:55:06.391Z,28.17
2019-01-15T17:58:12.127Z,28.17
2019-01-15T18:01:05.907Z,26.10
2019-01-15T18:04:02.439Z,25.23
2019-01-15T18:07:02.105Z,27.23
2019-01-15T18:10:05.030Z,28.33
2019-01-15T18:13:03.481Z,24.17
2019-01-15T18:15:51.265Z,28.23
2019-01-15T18:18:37.933Z,28.07
2019-01-15T18:21:31.389Z,28.50
2019-01-15T18:24:10.812Z,29.00
2019-01-15T18:26:58.488Z,25.97
2019-01-15T18:29:43.022Z,22.90
2019-01-15T18:32:30.617Z,27.60
2019-01-15T18:35:15.794Z,29.53
2019-01-15T18:37:55.886Z,32.70
2019-01-15T18:40:58.878Z,26.43
2019-01-15T18:43:45.210Z,26.77
2019-01-15T18:46:22.962Z,21.77
2019-01-15T18:49:03.358Z,29.27
2019-01-15T18:52:02.932Z,23.10
2019-01-15T18:54:56.822Z,21.07
2019-01-15T18:57:48.905Z,24.20
2019-01-15T19:00:35.605Z,22.80
2019-01-15T19:03:22.262Z,22.37
2019-01-15T19:06:22.313Z,20.63
2019-01-15T19:09:03.834Z,21.13
2019-01-15T19:11:50.582Z,21.33
2019-01-15T19:14:37.142Z,17.37
2019-01-15T19:17:27.989Z,20.00
2019-01-15T19:20:21.707Z,19.33
2019-01-15T19:23:06.025Z,20.93
2019-01-15T19:25:59.488Z,24.53
2019-01-15T19:28:50.154Z,21.50
2019-01-15T19:31:43.619Z,18.53
2019-01-15T19:34:30.022Z,17.20
2019-01-15T19:37:32.953Z,17.93
2019-01-15T19:40:20.668Z,17.17
2019-01-15T19:43:23.773Z,18.10
2019-01-15T19:46:20.448Z,20.87
2019-01-15T19:49:11.542Z,17.90
2019-01-15T19:51:57.900Z,17.20
2019-01-15T19:55:04.362Z,16.33
2019-01-15T19:57:50.860Z,15.10
2019-01-15T20:00:39.636Z,19.07
2019-01-15T20:03:25.699Z,17.02
2019-01-15T20:06:05.000Z,14.77
2019-01-15T20:08:51.780Z,13.73
2019-01-15T20:11:48.612Z,16.37
2019-01-15T20:14:35.907Z,13.17
2019-01-15T20:17:32.865Z,13.13
2019-01-15T20:20:19.600Z,14.93
2019-01-15T20:23:16.225Z,13.07
2019-01-15T20:26:02.325Z,12.97
2019-01-15T20:28:56.458Z,12.33
2019-01-15T20:31:43.454Z,13.53
2019-01-15T20:34:32.000Z,13.23
2019-01-15T20:37:16.232Z,10.03
2019-01-15T20:40:00.176Z,16.73
2019-01-15T20:42:50.662Z,9.80
2019-01-15T20:45:37.733Z,10.33
2019-01-15T20:48:17.380Z,9.27
2019-01-15T20:51:23.387Z,9.87
2019-01-15T20:54:03.743Z,7.87
2019-01-15T20:56:54.799Z,10.67
2019-01-15T20:59:39.415Z,7.17
2019-01-15T21:02:24.485Z,8.20
2019-01-15T21:05:05.608Z,8.40
2019-01-15T21:07:52.384Z,11.43
2019-01-15T21:10:42.618Z,9.00
2019-01-15T21:13:46.019Z,10.13
2019-01-15T21:16:32.654Z,9.80
2019-01-15T21:19:23.553Z,11.60
2019-01-15T21:22:10.060Z,11.87
2019-01-15T21:24:50.434Z,14.00
2019-01-15T21:27:43.399Z,16.27
2019-01-15T21:30:30.839Z,18.03
2019-01-15T21:33:21.490Z,26.40
2019-01-15T21:36:06.601Z,25.67
2019-01-15T21:39:00.478Z,32.17
2019-01-15T21:41:45.823Z,31.93
2019-01-15T21:44:33.583Z,43.25
2019-01-15T21:47:13.699Z,33.07
2019-01-15T21:50:11.659Z,39.10
2019-01-15T21:53:05.078Z,36.00
2019-01-15T21:55:51.632Z,44.10
2019-01-15T21:58:35.936Z,37.88
2019-01-15T22:01:21.243Z,41.77
2019-01-15T22:04:27.664Z,43.53
2019-01-15T22:07:15.314Z,33.40
2019-01-15T22:10:03.069Z,37.90
2019-01-15T22:12:50.717Z,41.73
2019-01-15T22:15:41.451Z,44.37
2019-01-15T22:18:29.285Z,42.37
2019-01-15T22:21:20.383Z,36.57
2019-01-15T22:24:06.727Z,41.47
2019-01-15T22:26:52.855Z,36.50
2019-01-15T22:29:55.484Z,39.30
2019-01-15T22:32:46.873Z,46.73
2019-01-15T22:35:52.857Z,45.93
2019-01-15T22:38:39.480Z,42.83
2019-01-15T22:41:29.594Z,41.90
2019-01-15T22:44:16.035Z,39.13
2019-01-15T22:47:03.736Z,35.93
2019-01-15T22:49:54.408Z,39.27
2019-01-15T22:52:30.363Z,37.77
2019-01-15T22:55:06.541Z,36.53
2019-01-15T22:58:06.147Z,33.13
2019-01-15T23:01:09.560Z,36.03
2019-01-15T23:03:55.843Z,47.67
2019-01-15T23:06:43.586Z,34.00
2019-01-15T23:09:39.106Z,40.87
2019-01-15T23:12:26.973Z,35.17
2019-01-15T23:15:13.269Z,37.23
2019-01-15T23:18:02.338Z,36.53
2019-01-15T23:20:48.093Z,36.40
2019-01-15T23:23:34.758Z,42.50
2019-01-15T23:26:21.411Z,36.70
2019-01-15T23:29:10.900Z,40.57
2019-01-15T23:31:48.033Z,29.33
2019-01-15T23:34:35.783Z,38.13
2019-01-15T23:37:38.988Z,32.30
2019-01-15T23:40:27.326Z,38.57
2019-01-15T23:43:13.463Z,33.57
2019-01-15T23:45:59.967Z,31.60
2019-01-15T23:48:51.982Z,34.47
2019-01-15T23:51:38.571Z,33.90
2019-01-15T23:54:32.238Z,34.20
2019-01-15T23:57:25.548Z,34.60
